createdAt,value
2022-10-12T00:00:01.089Z,0
2022-10-12T00:01:03.423Z,0
2022-10-12T00:02:08.723Z,0
2022-10-12T00:03:01.064Z,0
2022-10-12T00:04:01.036Z,0
2022-10-12T00:05:01.153Z,0
2022-10-12T00:06:06.690Z,0
2022-10-12T00:07:01.142Z,0
2022-10-12T00:08:01.164Z,0
2022-10-12T00:09:01.071Z,0
2022-10-12T00:10:01.076Z,0
2022-10-12T00:11:11.143Z,0
2022-10-12T00:12:01.450Z,0
2022-10-12T00:13:01.149Z,0
2022-10-12T00:14:01.047Z,0
2022-10-12T00:15:01.111Z,0
2022-10-12T00:16:15.404Z,0
2022-10-12T00:17:01.774Z,0
2022-10-12T00:18:01.434Z,0
2022-10-12T00:19:02.987Z,0
2022-10-12T00:20:01.058Z,0
2022-10-12T00:21:01.175Z,0
2022-10-12T00:22:01.137Z,0
2022-10-12T00:23:01.185Z,0
2022-10-12T00:24:01.533Z,0
2022-10-12T00:25:01.170Z,0
2022-10-12T00:26:01.055Z,0
2022-10-12T00:27:01.062Z,0
2022-10-12T00:28:01.098Z,0
2022-10-12T00:29:01.761Z,0
2022-10-12T00:30:01.067Z,0
2022-10-12T00:31:01.095Z,0
2022-10-12T00:32:01.207Z,0
2022-10-12T00:33:01.492Z,0
2022-10-12T00:34:01.112Z,0
2022-10-12T00:35:01.129Z,0
2022-10-12T00:36:01.141Z,0
2022-10-12T00:37:01.777Z,0
2022-10-12T00:38:01.448Z,0
2022-10-12T00:39:01.158Z,0
2022-10-12T00:40:01.807Z,0
2022-10-12T00:41:01.582Z,0
2022-10-12T00:42:00.643Z,0
2022-10-12T00:43:00.351Z,0
2022-10-12T00:43:59.939Z,0
2022-10-12T00:44:59.509Z,0
2022-10-12T00:46:01.894Z,0
2022-10-12T00:47:01.529Z,0
2022-10-12T00:48:00.899Z,0
2022-10-12T00:49:00.625Z,0
2022-10-12T00:50:00.296Z,0
2022-10-12T00:50:59.882Z,0
2022-10-12T00:51:59.499Z,0
2022-10-12T00:53:01.227Z,0
2022-10-12T00:54:01.141Z,0
2022-10-12T00:55:01.354Z,0
2022-10-12T00:56:01.139Z,0
2022-10-12T00:57:01.521Z,0
2022-10-12T00:58:01.274Z,0
2022-10-12T00:59:02.391Z,0
2022-10-12T01:00:02.353Z,0
2022-10-12T01:01:02.413Z,0
2022-10-12T01:02:01.078Z,0
2022-10-12T01:03:01.055Z,0
2022-10-12T01:04:01.037Z,0
2022-10-12T01:05:01.118Z,0
2022-10-12T01:06:00.789Z,0
2022-10-12T01:07:00.494Z,0
2022-10-12T01:08:00.195Z,0
2022-10-12T01:08:59.824Z,0
2022-10-12T01:10:03.045Z,0
2022-10-12T01:11:03.038Z,0
2022-10-12T01:12:02.514Z,0
2022-10-12T01:13:01.726Z,0
2022-10-12T01:14:02.105Z,0
2022-10-12T01:15:01.519Z,0
2022-10-12T01:16:01.469Z,0
2022-10-12T01:17:01.299Z,0
2022-10-12T01:18:02.987Z,0
2022-10-12T01:19:01.727Z,0
2022-10-12T01:20:01.101Z,0
2022-10-12T01:21:01.449Z,0
2022-10-12T01:22:02.481Z,0
2022-10-12T01:23:01.496Z,0
2022-10-12T01:24:02.100Z,0
2022-10-12T01:25:01.048Z,0
2022-10-12T01:26:01.056Z,0
2022-10-12T01:27:01.144Z,0
2022-10-12T01:28:01.159Z,0
2022-10-12T01:29:01.196Z,0
2022-10-12T01:30:01.441Z,0
2022-10-12T01:31:01.497Z,0
2022-10-12T01:32:02.633Z,0
2022-10-12T01:33:01.067Z,0
2022-10-12T01:34:01.056Z,0
2022-10-12T01:35:01.079Z,0
2022-10-12T01:36:01.100Z,0
2022-10-12T01:37:04.702Z,0
2022-10-12T01:38:01.785Z,0
2022-10-12T01:39:01.505Z,0
2022-10-12T01:40:01.107Z,0
2022-10-12T01:41:01.152Z,0
2022-10-12T01:42:08.481Z,0
2022-10-12T01:43:01.126Z,0
2022-10-12T01:44:01.800Z,0
2022-10-12T01:45:01.151Z,0
2022-10-12T01:46:01.181Z,0
2022-10-12T01:47:10.515Z,0
2022-10-12T01:48:01.799Z,0
2022-10-12T01:49:02.361Z,0
2022-10-12T01:50:01.191Z,0
2022-10-12T01:51:01.088Z,0
2022-10-12T01:52:14.241Z,0
2022-10-12T01:53:01.095Z,0
2022-10-12T01:54:01.000Z,0
2022-10-12T01:55:01.556Z,0
2022-10-12T01:56:01.154Z,0
2022-10-12T01:57:16.249Z,0
2022-10-12T01:58:02.148Z,0
2022-10-12T01:59:02.179Z,0
2022-10-12T02:00:01.141Z,0
2022-10-12T02:01:01.204Z,0
2022-10-12T02:02:01.148Z,0
2022-10-12T02:03:01.104Z,0
2022-10-12T02:04:01.087Z,0
2022-10-12T02:05:01.461Z,0
2022-10-12T02:06:01.090Z,0
2022-10-12T02:07:01.473Z,0
2022-10-12T02:08:01.105Z,0
2022-10-12T02:09:01.096Z,0
2022-10-12T02:10:01.503Z,0
2022-10-12T02:11:02.192Z,0
2022-10-12T02:12:01.143Z,0
2022-10-12T02:13:01.097Z,0
2022-10-12T02:14:01.138Z,0
2022-10-12T02:15:01.140Z,0
2022-10-12T02:16:01.149Z,0
2022-10-12T02:17:01.171Z,0
2022-10-12T02:18:01.378Z,0
2022-10-12T02:19:01.175Z,0
2022-10-12T02:20:01.481Z,0
2022-10-12T02:21:01.189Z,0
2022-10-12T02:22:01.100Z,0
2022-10-12T02:23:01.130Z,0
2022-10-12T02:24:00.755Z,0
2022-10-12T02:25:00.325Z,0
2022-10-12T02:25:59.975Z,0
2022-10-12T02:26:59.605Z,0
2022-10-12T02:28:01.789Z,0
2022-10-12T02:29:01.454Z,0
2022-10-12T02:30:01.138Z,0
2022-10-12T02:31:01.070Z,0
2022-10-12T02:32:01.111Z,0
2022-10-12T02:33:01.089Z,0
2022-10-12T02:34:01.178Z,0
2022-10-12T02:35:01.086Z,0
2022-10-12T02:36:01.081Z,0
2022-10-12T02:37:01.109Z,0
2022-10-12T02:38:01.485Z,0
2022-10-12T02:39:00.762Z,0
2022-10-12T02:40:00.372Z,0
2022-10-12T02:40:59.941Z,0
2022-10-12T02:41:59.576Z,0
2022-10-12T02:43:16.624Z,0
2022-10-12T02:44:01.214Z,0
2022-10-12T02:45:01.131Z,0
2022-10-12T02:46:01.231Z,0
2022-10-12T02:47:01.329Z,0
2022-10-12T02:48:01.134Z,0
2022-10-12T02:49:01.148Z,0
2022-10-12T02:50:01.158Z,0
2022-10-12T02:51:01.050Z,0
2022-10-12T02:52:01.240Z,0
2022-10-12T02:53:01.087Z,0
2022-10-12T02:54:01.084Z,0
2022-10-12T02:55:01.228Z,0
2022-10-12T02:56:01.198Z,0
2022-10-12T02:57:02.101Z,0
2022-10-12T02:58:01.134Z,0
2022-10-12T02:59:01.837Z,0
2022-10-12T03:00:01.120Z,0
2022-10-12T03:01:01.201Z,0
2022-10-12T03:02:01.911Z,0
2022-10-12T03:03:02.847Z,0
2022-10-12T03:04:01.200Z,0
2022-10-12T03:05:01.881Z,0
2022-10-12T03:06:01.499Z,0
2022-10-12T03:07:01.406Z,0
2022-10-12T03:08:02.601Z,0
2022-10-12T03:09:02.523Z,0
2022-10-12T03:10:01.057Z,0
2022-10-12T03:11:01.045Z,0
2022-10-12T03:12:01.119Z,0
2022-10-12T03:13:00.660Z,0
2022-10-12T03:14:00.270Z,0
2022-10-12T03:14:59.897Z,0
2022-10-12T03:15:59.562Z,0
2022-10-12T03:17:02.197Z,0
2022-10-12T03:18:02.659Z,0
2022-10-12T03:19:01.135Z,0
2022-10-12T03:20:01.780Z,0
2022-10-12T03:21:01.198Z,0
2022-10-12T03:22:01.161Z,0
2022-10-12T03:23:05.522Z,0
2022-10-12T03:24:01.803Z,0
2022-10-12T03:25:04.188Z,0
2022-10-12T03:26:01.195Z,0
2022-10-12T03:27:01.082Z,0
2022-10-12T03:28:08.606Z,0
2022-10-12T03:29:01.068Z,0
2022-10-12T03:30:01.069Z,0
2022-10-12T03:31:01.076Z,0
2022-10-12T03:32:01.127Z,0
2022-10-12T03:33:10.875Z,0
2022-10-12T03:34:01.767Z,0
2022-10-12T03:35:01.531Z,0
2022-10-12T03:36:02.094Z,0
2022-10-12T03:37:03.064Z,0
2022-10-12T03:38:14.325Z,0
2022-10-12T03:39:01.064Z,0
2022-10-12T03:40:01.056Z,0
2022-10-12T03:41:06.457Z,0
2022-10-12T03:42:01.071Z,0
2022-10-12T03:43:16.594Z,0
2022-10-12T03:44:01.406Z,0
2022-10-12T03:45:01.028Z,0
2022-10-12T03:46:01.392Z,0
2022-10-12T03:47:02.841Z,0
2022-10-12T03:48:04.886Z,0
2022-10-12T03:49:01.414Z,0
2022-10-12T03:50:01.100Z,0
2022-10-12T03:51:01.061Z,0
2022-10-12T03:52:01.142Z,0
2022-10-12T03:53:01.137Z,0
2022-10-12T03:54:01.174Z,0
2022-10-12T03:55:01.438Z,0
2022-10-12T03:56:01.082Z,0
2022-10-12T03:57:01.064Z,0
2022-10-12T03:58:01.100Z,0
2022-10-12T03:59:01.106Z,0
2022-10-12T04:00:01.096Z,0
2022-10-12T04:01:01.135Z,0
2022-10-12T04:02:01.100Z,0
2022-10-12T04:03:01.128Z,0
2022-10-12T04:04:01.512Z,0
2022-10-12T04:05:03.879Z,0
2022-10-12T04:06:01.423Z,0
2022-10-12T04:07:02.692Z,0
2022-10-12T04:08:02.585Z,0
2022-10-12T04:09:01.544Z,0
2022-10-12T04:10:02.189Z,0
2022-10-12T04:11:01.442Z,0
2022-10-12T04:12:02.123Z,0
2022-10-12T04:13:01.077Z,0
2022-10-12T04:14:01.095Z,0
2022-10-12T04:15:01.713Z,0
2022-10-12T04:16:01.252Z,0
2022-10-12T04:17:01.865Z,0
2022-10-12T04:18:01.121Z,0
2022-10-12T04:19:01.491Z,0
2022-10-12T04:20:01.154Z,0
2022-10-12T04:21:01.241Z,0
2022-10-12T04:22:01.125Z,0
2022-10-12T04:23:01.173Z,0
2022-10-12T04:24:01.258Z,0
2022-10-12T04:25:01.073Z,0
2022-10-12T04:26:01.143Z,0
2022-10-12T04:27:01.153Z,0
2022-10-12T04:28:01.073Z,0
2022-10-12T04:29:01.514Z,0
2022-10-12T04:30:01.063Z,0
2022-10-12T04:31:01.422Z,0
2022-10-12T04:32:01.118Z,0
2022-10-12T04:33:01.136Z,0
2022-10-12T04:34:01.105Z,0
2022-10-12T04:35:01.744Z,0
2022-10-12T04:36:01.121Z,0
2022-10-12T04:37:01.334Z,0
2022-10-12T04:38:01.666Z,0
2022-10-12T04:39:01.499Z,0
2022-10-12T04:40:01.447Z,0
2022-10-12T04:41:01.051Z,0
2022-10-12T04:42:01.151Z,0
2022-10-12T04:43:01.065Z,0
2022-10-12T04:44:01.076Z,0
2022-10-12T04:45:01.352Z,0
2022-10-12T04:46:01.077Z,0
2022-10-12T04:47:01.090Z,0
2022-10-12T04:48:01.178Z,0
2022-10-12T04:49:01.429Z,0
2022-10-12T04:50:01.830Z,0
2022-10-12T04:51:01.139Z,0
2022-10-12T04:52:01.127Z,0
2022-10-12T04:53:01.064Z,0
2022-10-12T04:54:01.106Z,0
2022-10-12T04:55:00.724Z,0
2022-10-12T04:56:00.407Z,0
2022-10-12T04:57:00.007Z,0
2022-10-12T04:57:59.632Z,0
2022-10-12T04:59:01.443Z,0
2022-10-12T05:00:01.462Z,0
2022-10-12T05:01:02.390Z,0
2022-10-12T05:02:01.087Z,0
2022-10-12T05:03:01.718Z,0
2022-10-12T05:04:01.268Z,0
2022-10-12T05:05:00.911Z,0
2022-10-12T05:06:01.242Z,0
2022-10-12T05:07:01.259Z,0
2022-10-12T05:08:01.047Z,0
2022-10-12T05:09:03.568Z,0
2022-10-12T05:10:02.763Z,0
2022-10-12T05:11:01.170Z,0
2022-10-12T05:12:01.156Z,0
2022-10-12T05:13:01.143Z,0
2022-10-12T05:14:06.391Z,0
2022-10-12T05:15:01.070Z,0
2022-10-12T05:16:01.090Z,0
2022-10-12T05:17:01.045Z,0
2022-10-12T05:18:01.557Z,0
2022-10-12T05:19:09.061Z,0
2022-10-12T05:20:01.196Z,0
2022-10-12T05:21:01.048Z,0
2022-10-12T05:22:01.059Z,0
2022-10-12T05:23:01.103Z,0
2022-10-12T05:24:11.162Z,0
2022-10-12T05:25:01.034Z,0
2022-10-12T05:26:01.060Z,0
2022-10-12T05:27:01.070Z,0
2022-10-12T05:28:01.061Z,0
2022-10-12T05:29:14.816Z,0
2022-10-12T05:30:01.452Z,0
2022-10-12T05:31:01.871Z,0
2022-10-12T05:32:01.195Z,0
2022-10-12T05:33:01.067Z,0
2022-10-12T05:34:01.067Z,0
2022-10-12T05:35:01.078Z,0
2022-10-12T05:36:01.073Z,0
2022-10-12T05:37:01.703Z,0
2022-10-12T05:38:01.412Z,0
2022-10-12T05:39:02.114Z,0
2022-10-12T05:40:02.214Z,0
2022-10-12T05:41:01.225Z,0
2022-10-12T05:42:01.128Z,0
2022-10-12T05:43:01.131Z,0
2022-10-12T05:44:01.144Z,0
2022-10-12T05:45:01.726Z,0
2022-10-12T05:46:01.369Z,0
2022-10-12T05:47:02.413Z,0
2022-10-12T05:48:01.084Z,0
2022-10-12T05:49:01.071Z,0
2022-10-12T05:50:01.409Z,0
2022-10-12T05:51:00.898Z,0
2022-10-12T05:52:01.086Z,0
2022-10-12T05:53:01.098Z,0
2022-10-12T05:54:05.425Z,0
2022-10-12T05:55:01.048Z,0
2022-10-12T05:56:01.181Z,0
2022-10-12T05:57:01.119Z,0
2022-10-12T05:58:06.144Z,0
2022-10-12T05:59:02.497Z,0
2022-10-12T06:00:01.837Z,0
2022-10-12T06:01:01.311Z,0
2022-10-12T06:02:01.196Z,0
2022-10-12T06:03:01.161Z,0
2022-10-12T06:04:01.186Z,0
2022-10-12T06:05:00.791Z,0
2022-10-12T06:06:00.549Z,0
2022-10-12T06:07:00.141Z,0
2022-10-12T06:07:59.776Z,0
2022-10-12T06:09:01.492Z,0
2022-10-12T06:10:01.065Z,0
2022-10-12T06:11:00.780Z,0
2022-10-12T06:12:01.288Z,0
2022-10-12T06:13:01.961Z,0
2022-10-12T06:14:01.180Z,0
2022-10-12T06:15:01.370Z,0
2022-10-12T06:16:02.196Z,0
2022-10-12T06:17:02.280Z,0
2022-10-12T06:18:01.699Z,0
2022-10-12T06:19:02.016Z,0
2022-10-12T06:20:01.785Z,0
2022-10-12T06:21:28.332Z,0
2022-10-12T06:22:01.135Z,0
2022-10-12T06:23:01.104Z,0
2022-10-12T06:24:01.549Z,0
2022-10-12T06:25:01.093Z,0
2022-10-12T06:26:01.297Z,0
2022-10-12T06:27:01.101Z,0
2022-10-12T06:28:01.148Z,0
2022-10-12T06:29:01.234Z,0
2022-10-12T06:30:00.819Z,0
2022-10-12T06:31:00.555Z,0
2022-10-12T06:32:00.229Z,0
2022-10-12T06:32:59.896Z,0
2022-10-12T06:33:59.485Z,0
2022-10-12T06:35:01.131Z,0
2022-10-12T06:36:01.054Z,0
2022-10-12T06:37:02.212Z,0
2022-10-12T06:38:01.444Z,0
2022-10-12T06:39:01.941Z,0
2022-10-12T06:40:01.071Z,0
2022-10-12T06:41:01.075Z,0
2022-10-12T06:42:00.610Z,0
2022-10-12T06:43:00.182Z,0
2022-10-12T06:43:59.757Z,0
2022-10-12T06:45:01.868Z,0
2022-10-12T06:46:01.068Z,0
2022-10-12T06:47:01.159Z,0
2022-10-12T06:48:01.148Z,0
2022-10-12T06:49:01.068Z,0
2022-10-12T06:50:04.938Z,0
2022-10-12T06:51:01.157Z,0
2022-10-12T06:52:01.053Z,0
2022-10-12T06:53:01.404Z,0
2022-10-12T06:54:02.110Z,0
2022-10-12T06:55:07.630Z,0
2022-10-12T06:56:01.074Z,0
2022-10-12T06:57:01.100Z,0
2022-10-12T06:58:01.110Z,0
2022-10-12T06:59:01.112Z,0
2022-10-12T07:00:11.969Z,0
2022-10-12T07:01:01.382Z,0
2022-10-12T07:02:02.285Z,0
2022-10-12T07:03:02.198Z,0
2022-10-12T07:04:01.199Z,0
2022-10-12T07:05:13.464Z,0
2022-10-12T07:06:01.450Z,0
2022-10-12T07:07:02.582Z,0
2022-10-12T07:08:01.182Z,0
2022-10-12T07:09:01.084Z,0
2022-10-12T07:10:15.871Z,0
2022-10-12T07:11:01.465Z,0
2022-10-12T07:12:00.562Z,0
2022-10-12T07:13:00.126Z,0
2022-10-12T07:13:59.749Z,0
2022-10-12T07:15:01.392Z,0
2022-10-12T07:16:01.140Z,0
2022-10-12T07:17:01.147Z,0
2022-10-12T07:18:01.734Z,0
2022-10-12T07:19:01.542Z,0
2022-10-12T07:20:01.241Z,0
2022-10-12T07:21:01.128Z,0
2022-10-12T07:22:01.164Z,0
2022-10-12T07:23:01.169Z,0
2022-10-12T07:24:01.049Z,0
2022-10-12T07:25:01.162Z,0
2022-10-12T07:26:01.421Z,0
2022-10-12T07:27:02.611Z,0.03888888888888889
2022-10-12T07:28:01.093Z,0
2022-10-12T07:29:01.641Z,0.03888888888888889
2022-10-12T07:30:01.172Z,0
2022-10-12T07:31:01.936Z,0
2022-10-12T07:32:01.115Z,0
2022-10-12T07:33:01.131Z,0
2022-10-12T07:34:01.135Z,0.03888888888888889
2022-10-12T07:35:01.127Z,0
2022-10-12T07:36:21.320Z,0
2022-10-12T07:37:01.525Z,0
2022-10-12T07:38:00.264Z,0
2022-10-12T07:39:00.082Z,0
2022-10-12T07:39:59.714Z,0
2022-10-12T07:41:01.669Z,0
2022-10-12T07:42:01.383Z,0
2022-10-12T07:43:15.818Z,0
2022-10-12T07:44:02.096Z,0
2022-10-12T07:45:01.125Z,0
2022-10-12T07:46:01.197Z,0
2022-10-12T07:47:01.073Z,0
2022-10-12T07:48:01.483Z,0
2022-10-12T07:49:01.143Z,0
2022-10-12T07:50:01.124Z,0
2022-10-12T07:51:01.287Z,0
2022-10-12T07:52:00.848Z,0
2022-10-12T07:53:01.225Z,0
2022-10-12T07:54:01.534Z,0
2022-10-12T07:55:01.152Z,0
2022-10-12T07:56:01.192Z,0
2022-10-12T07:57:01.071Z,0
2022-10-12T07:58:01.081Z,0
2022-10-12T07:59:01.107Z,0
2022-10-12T08:00:01.090Z,0
2022-10-12T08:01:01.094Z,0
2022-10-12T08:02:01.136Z,0
2022-10-12T08:03:01.912Z,0
2022-10-12T08:04:01.961Z,0
2022-10-12T08:05:00.598Z,0
2022-10-12T08:06:00.242Z,0.019444444444444445
2022-10-12T08:06:59.910Z,0
2022-10-12T08:07:59.696Z,0.23888888888888887
2022-10-12T08:09:01.440Z,0
2022-10-12T08:10:02.056Z,0
2022-10-12T08:11:02.052Z,0
2022-10-12T08:12:00.927Z,0
2022-10-12T08:13:00.619Z,0
2022-10-12T08:14:00.568Z,0.23888888888888887
2022-10-12T08:15:00.368Z,0.31666666666666665
2022-10-12T08:16:00.050Z,0.24722222222222223
2022-10-12T08:16:59.764Z,0.31666666666666665
2022-10-12T08:18:01.928Z,0
2022-10-12T08:19:02.556Z,0
2022-10-12T08:20:01.108Z,0
2022-10-12T08:21:01.432Z,0
2022-10-12T08:22:01.425Z,0
2022-10-12T08:23:01.113Z,0
2022-10-12T08:24:01.123Z,0.19999999999999998
2022-10-12T08:25:01.051Z,0
2022-10-12T08:26:01.154Z,0
2022-10-12T08:27:01.746Z,0
2022-10-12T08:28:01.171Z,0
2022-10-12T08:29:01.175Z,0
2022-10-12T08:30:01.134Z,0
2022-10-12T08:31:01.555Z,0
2022-10-12T08:32:01.175Z,0
2022-10-12T08:33:01.822Z,0
2022-10-12T08:34:01.109Z,0
2022-10-12T08:35:01.135Z,0
2022-10-12T08:36:05.494Z,0.5666666666666667
2022-10-12T08:37:01.507Z,0.4666666666666666
2022-10-12T08:38:01.481Z,0.35833333333333334
2022-10-12T08:39:02.130Z,0
2022-10-12T08:40:03.686Z,0
2022-10-12T08:41:08.236Z,0.08611111111111111
2022-10-12T08:42:01.452Z,0
2022-10-12T08:43:02.458Z,0.08055555555555555
2022-10-12T08:44:01.062Z,0
2022-10-12T08:45:01.060Z,0
2022-10-12T08:46:10.284Z,0
2022-10-12T08:47:01.452Z,0
2022-10-12T08:48:02.096Z,0.2861111111111111
2022-10-12T08:49:01.086Z,0.08055555555555555
2022-10-12T08:50:01.098Z,0
2022-10-12T08:51:14.868Z,0.011111111111111112
2022-10-12T08:52:00.589Z,0
2022-10-12T08:53:00.346Z,0
2022-10-12T08:53:59.892Z,0
2022-10-12T08:54:59.572Z,0
2022-10-12T08:56:01.131Z,0
2022-10-12T08:57:01.148Z,0.4361111111111111
2022-10-12T08:58:01.139Z,0.5166666666666667
2022-10-12T08:59:01.138Z,0.19999999999999998
2022-10-12T09:00:01.370Z,0.2777777777777778
2022-10-12T09:01:01.486Z,0.5555555555555556
2022-10-12T09:02:01.185Z,0.23888888888888887
2022-10-12T09:03:01.126Z,0.2777777777777778
2022-10-12T09:04:01.120Z,0.11944444444444444
2022-10-12T09:05:01.118Z,0.08055555555555555
2022-10-12T09:06:01.106Z,0
2022-10-12T09:07:01.340Z,0
2022-10-12T09:08:01.364Z,0
2022-10-12T09:09:01.385Z,0.08055555555555555
2022-10-12T09:10:01.581Z,0.19722222222222222
2022-10-12T09:11:02.136Z,0.15833333333333333
2022-10-12T09:12:01.340Z,0.6361111111111111
2022-10-12T09:13:01.132Z,0.4361111111111111
2022-10-12T09:14:01.130Z,0
2022-10-12T09:15:01.140Z,0.31666666666666665
2022-10-12T09:16:01.152Z,0.23888888888888887
2022-10-12T09:17:01.536Z,0.36944444444444446
2022-10-12T09:18:01.551Z,0.3972222222222222
2022-10-12T09:19:01.224Z,0.08055555555555555
2022-10-12T09:20:02.242Z,0.7944444444444444
2022-10-12T09:21:01.998Z,0.31666666666666665
2022-10-12T09:22:01.109Z,0.7138888888888888
2022-10-12T09:23:01.057Z,0.5555555555555556
2022-10-12T09:24:01.114Z,0.4361111111111111
2022-10-12T09:25:01.115Z,0.31666666666666665
2022-10-12T09:26:01.158Z,0.03888888888888889
2022-10-12T09:27:02.280Z,0.7777777777777777
2022-10-12T09:28:01.944Z,0.675
2022-10-12T09:29:01.277Z,0.5555555555555556
2022-10-12T09:30:01.144Z,0.2777777777777778
2022-10-12T09:31:02.419Z,0.15833333333333333
2022-10-12T09:32:01.018Z,0.47777777777777775
2022-10-12T09:33:01.152Z,0.2777777777777778
2022-10-12T09:34:01.059Z,0.11944444444444444
2022-10-12T09:35:01.140Z,0.875
2022-10-12T09:36:01.150Z,0.7138888888888888
2022-10-12T09:37:01.431Z,0.7638888888888888
2022-10-12T09:38:01.793Z,0.23888888888888887
2022-10-12T09:39:02.042Z,0.875
2022-10-12T09:40:01.783Z,0.31666666666666665
2022-10-12T09:41:01.111Z,0.5555555555555556
2022-10-12T09:42:01.174Z,0
2022-10-12T09:43:01.540Z,0.15833333333333333
2022-10-12T09:44:01.235Z,0
2022-10-12T09:45:01.165Z,0.23888888888888887
2022-10-12T09:46:01.533Z,0.21388888888888888
2022-10-12T09:47:02.399Z,0.23888888888888887
2022-10-12T09:48:01.155Z,0.31666666666666665
2022-10-12T09:49:01.091Z,0.7555555555555555
2022-10-12T09:50:01.121Z,0.5166666666666667
2022-10-12T09:51:01.078Z,0.23888888888888887
2022-10-12T09:52:00.669Z,0.44166666666666665
2022-10-12T09:53:00.355Z,0.7138888888888888
2022-10-12T09:53:59.941Z,0.31666666666666665
2022-10-12T09:55:01.470Z,0.35833333333333334
2022-10-12T09:56:00.602Z,1.3916666666666666
2022-10-12T09:57:00.315Z,0.6388888888888888
2022-10-12T09:57:59.962Z,0.5555555555555556
2022-10-12T09:58:59.664Z,0.7944444444444444
2022-10-12T10:00:01.305Z,0.675
2022-10-12T10:01:02.668Z,0.35833333333333334
2022-10-12T10:02:01.205Z,0.11111111111111112
2022-10-12T10:03:01.892Z,0.5166666666666667
2022-10-12T10:04:01.954Z,0.31666666666666665
2022-10-12T10:05:01.445Z,0.34444444444444444
2022-10-12T10:06:01.205Z,0.5166666666666667
2022-10-12T10:07:02.784Z,0.49166666666666664
2022-10-12T10:08:01.070Z,0.47777777777777775
2022-10-12T10:09:01.088Z,0.7138888888888888
2022-10-12T10:10:01.233Z,0.47777777777777775
2022-10-12T10:11:01.141Z,0.8333333333333333
2022-10-12T10:12:05.727Z,0.2333333333333333
2022-10-12T10:13:01.369Z,0.3972222222222222
2022-10-12T10:14:01.487Z,0.25833333333333336
2022-10-12T10:15:01.122Z,0.31666666666666665
2022-10-12T10:16:01.134Z,0
2022-10-12T10:17:08.461Z,0.725
2022-10-12T10:18:01.297Z,0.675
2022-10-12T10:19:01.135Z,0.7555555555555555
2022-10-12T10:20:01.157Z,0.3972222222222222
2022-10-12T10:21:01.169Z,0.5555555555555556
2022-10-12T10:22:10.690Z,0.6277777777777777
2022-10-12T10:23:01.530Z,0.7138888888888888
2022-10-12T10:24:01.449Z,0.9
2022-10-12T10:25:01.457Z,0.8722222222222222
2022-10-12T10:26:02.146Z,0.8638888888888888
2022-10-12T10:27:13.575Z,0.7638888888888888
2022-10-12T10:28:01.116Z,0.3972222222222222
2022-10-12T10:29:01.148Z,0.35833333333333334
2022-10-12T10:30:17.503Z,0.9138888888888889
2022-10-12T10:31:01.119Z,0.31666666666666665
2022-10-12T10:32:14.493Z,0.4361111111111111
2022-10-12T10:33:01.060Z,0.19722222222222222
2022-10-12T10:34:01.377Z,0.7944444444444444
2022-10-12T10:35:01.512Z,0.6222222222222222
2022-10-12T10:36:02.498Z,0.11944444444444444
2022-10-12T10:37:01.267Z,0.2777777777777778
2022-10-12T10:38:01.804Z,0.31666666666666665
2022-10-12T10:39:01.278Z,0.19999999999999998
2022-10-12T10:40:02.650Z,0.4361111111111111
2022-10-12T10:41:02.001Z,0.15833333333333333
2022-10-12T10:42:01.107Z,0.31666666666666665
2022-10-12T10:43:01.105Z,0.2777777777777778
2022-10-12T10:44:01.106Z,0.5166666666666667
2022-10-12T10:45:01.097Z,0.23888888888888887
2022-10-12T10:46:01.116Z,0.2777777777777778
2022-10-12T10:47:01.118Z,0.3972222222222222
2022-10-12T10:48:01.112Z,1.2305555555555554
2022-10-12T10:49:01.123Z,0.6361111111111111
2022-10-12T10:50:01.126Z,0.675
2022-10-12T10:51:01.148Z,0.875
2022-10-12T10:52:01.020Z,0.08055555555555555
2022-10-12T10:53:01.287Z,0.35833333333333334
2022-10-12T10:54:01.057Z,0.15833333333333333
2022-10-12T10:55:01.068Z,0.15833333333333333
2022-10-12T10:56:01.373Z,0.11944444444444444
2022-10-12T10:57:02.989Z,0.19722222222222222
2022-10-12T10:58:00.870Z,0.2777777777777778
2022-10-12T10:59:00.474Z,0.35833333333333334
2022-10-12T11:00:26.068Z,0.2777777777777778
2022-10-12T11:01:01.518Z,0.675
2022-10-12T11:02:01.271Z,0.19999999999999998
2022-10-12T11:03:01.108Z,0.19999999999999998
2022-10-12T11:04:01.133Z,1.0722222222222222
2022-10-12T11:05:01.330Z,0.47777777777777775
2022-10-12T11:06:01.133Z,0.5972222222222222
2022-10-12T11:07:01.130Z,1.4305555555555556
2022-10-12T11:08:01.154Z,0.5555555555555556
2022-10-12T11:09:01.546Z,0.6083333333333333
2022-10-12T11:10:01.064Z,0.19999999999999998
2022-10-12T11:11:01.166Z,0.35833333333333334
2022-10-12T11:12:00.560Z,0.7944444444444444
2022-10-12T11:13:00.169Z,0.4361111111111111
2022-10-12T11:13:59.734Z,0.5166666666666667
2022-10-12T11:15:01.815Z,0.23888888888888887
2022-10-12T11:16:01.884Z,0.2777777777777778
2022-10-12T11:17:02.117Z,0.6361111111111111
2022-10-12T11:18:01.455Z,0.875
2022-10-12T11:19:01.750Z,0.7305555555555555
2022-10-12T11:20:01.192Z,0.11944444444444444
2022-10-12T11:21:02.167Z,0.6361111111111111
2022-10-12T11:22:01.150Z,0.15833333333333333
2022-10-12T11:23:01.141Z,0.23888888888888887
2022-10-12T11:24:01.173Z,0.23888888888888887
2022-10-12T11:25:01.191Z,0.4361111111111111
2022-10-12T11:26:01.163Z,0.5972222222222222
2022-10-12T11:27:01.058Z,0.47777777777777775
2022-10-12T11:28:01.446Z,0.2861111111111111
2022-10-12T11:29:01.098Z,0.5166666666666667
2022-10-12T11:30:10.968Z,0.5555555555555556
2022-10-12T11:31:01.097Z,0.2777777777777778
2022-10-12T11:32:01.100Z,0.15833333333333333
2022-10-12T11:33:01.090Z,0.8555555555555555
2022-10-12T11:34:01.129Z,0.03888888888888889
2022-10-12T11:35:01.147Z,0.7944444444444444
2022-10-12T11:36:01.152Z,0.11944444444444444
2022-10-12T11:37:19.864Z,0.11944444444444444
2022-10-12T11:38:01.329Z,0.1361111111111111
2022-10-12T11:39:06.070Z,0
2022-10-12T11:40:01.186Z,0.19999999999999998
2022-10-12T11:41:18.931Z,0.23888888888888887
2022-10-12T11:42:20.992Z,0.23888888888888887
2022-10-12T11:43:02.712Z,0.14722222222222223
2022-10-12T11:44:01.683Z,0.31666666666666665
2022-10-12T11:45:01.781Z,0.5166666666666667
2022-10-12T11:46:01.292Z,0.5972222222222222
2022-10-12T11:47:01.522Z,0.1527777777777778
2022-10-12T11:48:01.087Z,0.14722222222222223
2022-10-12T11:49:01.065Z,0.35833333333333334
2022-10-12T11:50:01.112Z,0.31666666666666665
2022-10-12T11:51:04.141Z,0.03888888888888889
2022-10-12T11:52:00.797Z,0.15833333333333333
2022-10-12T11:53:00.544Z,0.12222222222222222
2022-10-12T11:54:00.452Z,0.11944444444444444
2022-10-12T11:55:00.007Z,0.03888888888888889
2022-10-12T11:55:59.593Z,0.31666666666666665
2022-10-12T11:57:01.246Z,0.03888888888888889
2022-10-12T11:58:03.512Z,0.18333333333333335
2022-10-12T11:59:02.512Z,0.11944444444444444
2022-10-12T12:00:01.097Z,0.35833333333333334
2022-10-12T12:01:01.530Z,0.7555555555555555
2022-10-12T12:02:01.467Z,0.10555555555555556
2022-10-12T12:03:08.243Z,0.12222222222222222
2022-10-12T12:04:17.149Z,0.08055555555555555
2022-10-12T12:05:01.871Z,0.08055555555555555
2022-10-12T12:06:01.778Z,0.3972222222222222
2022-10-12T12:07:01.169Z,0.19999999999999998
2022-10-12T12:08:10.714Z,0.011111111111111112
2022-10-12T12:09:01.338Z,0.03888888888888889
2022-10-12T12:10:01.440Z,0
2022-10-12T12:11:05.403Z,0.4361111111111111
2022-10-12T12:12:04.946Z,0.15833333333333333
2022-10-12T12:13:13.036Z,0.36944444444444446
2022-10-12T12:14:03.661Z,0.23888888888888887
2022-10-12T12:15:01.078Z,0.15833333333333333
2022-10-12T12:16:01.080Z,0.2777777777777778
2022-10-12T12:17:01.104Z,0.5555555555555556
2022-10-12T12:18:14.959Z,0.1611111111111111
2022-10-12T12:19:01.095Z,0.08055555555555555
2022-10-12T12:20:01.097Z,0.15833333333333333
2022-10-12T12:21:01.252Z,0
2022-10-12T12:22:01.116Z,0.11944444444444444
2022-10-12T12:23:16.548Z,0.1611111111111111
2022-10-12T12:24:01.229Z,0.08055555555555555
2022-10-12T12:25:01.142Z,0.2777777777777778
2022-10-12T12:26:01.136Z,0.19999999999999998
2022-10-12T12:27:01.137Z,0.35833333333333334
2022-10-12T12:28:01.142Z,0.3972222222222222
2022-10-12T12:29:01.196Z,0.11944444444444444